sensor_id;sensor_type;location;lat;lon;timestamp;temperature;humidity
46139;DHT22;32398;49.112;8.598;2022-07-23T00:01:50;27.50;54.30
46139;DHT22;32398;49.112;8.598;2022-07-23T00:04:18;27.50;53.80
46139;DHT22;32398;49.112;8.598;2022-07-23T00:06:45;27.50;53.90
46139;DHT22;32398;49.112;8.598;2022-07-23T00:09:11;27.50;54.00
46139;DHT22;32398;49.112;8.598;2022-07-23T00:11:38;27.50;54.00
46139;DHT22;32398;49.112;8.598;2022-07-23T00:14:04;27.50;54.30
46139;DHT22;32398;49.112;8.598;2022-07-23T00:16:31;27.40;54.30
46139;DHT22;32398;49.112;8.598;2022-07-23T00:18:58;27.40;54.20
46139;DHT22;32398;49.112;8.598;2022-07-23T00:21:27;27.40;54.00
46139;DHT22;32398;49.112;8.598;2022-07-23T00:23:54;27.40;54.00
46139;DHT22;32398;49.112;8.598;2022-07-23T00:26:20;27.40;54.10
46139;DHT22;32398;49.112;8.598;2022-07-23T00:28:47;27.40;53.80
46139;DHT22;32398;49.112;8.598;2022-07-23T00:31:14;27.30;53.80
46139;DHT22;32398;49.112;8.598;2022-07-23T00:33:40;27.30;53.70
46139;DHT22;32398;49.112;8.598;2022-07-23T00:36:07;27.30;53.70
46139;DHT22;32398;49.112;8.598;2022-07-23T00:38:35;27.30;53.60
46139;DHT22;32398;49.112;8.598;2022-07-23T00:41:02;27.30;53.60
46139;DHT22;32398;49.112;8.598;2022-07-23T00:43:28;27.20;53.60
46139;DHT22;32398;49.112;8.598;2022-07-23T00:45:55;27.30;53.80
46139;DHT22;32398;49.112;8.598;2022-07-23T00:48:21;27.20;53.60
46139;DHT22;32398;49.112;8.598;2022-07-23T00:50:48;27.20;53.60
46139;DHT22;32398;49.112;8.598;2022-07-23T00:53:15;27.20;53.70
46139;DHT22;32398;49.112;8.598;2022-07-23T00:55:43;27.10;53.70
46139;DHT22;32398;49.112;8.598;2022-07-23T00:58:09;27.10;53.80
46139;DHT22;32398;49.112;8.598;2022-07-23T01:00:36;27.10;53.90
46139;DHT22;32398;49.112;8.598;2022-07-23T01:03:03;27.10;53.90
46139;DHT22;32398;49.112;8.598;2022-07-23T01:05:29;27.10;53.90
46139;DHT22;32398;49.112;8.598;2022-07-23T01:07:56;27.00;54.00
46139;DHT22;32398;49.112;8.598;2022-07-23T01:10:23;27.00;54.10
46139;DHT22;32398;49.112;8.598;2022-07-23T01:13:01;27.00;54.30
46139;DHT22;32398;49.112;8.598;2022-07-23T01:15:28;26.90;54.20
46139;DHT22;32398;49.112;8.598;2022-07-23T01:17:55;27.00;54.30
46139;DHT22;32398;49.112;8.598;2022-07-23T01:20:21;26.90;54.30
46139;DHT22;32398;49.112;8.598;2022-07-23T01:22:49;26.90;54.40
46139;DHT22;32398;49.112;8.598;2022-07-23T01:25:16;26.90;54.40
46139;DHT22;32398;49.112;8.598;2022-07-23T01:27:42;26.90;54.40
46139;DHT22;32398;49.112;8.598;2022-07-23T01:30:09;26.90;54.60
46139;DHT22;32398;49.112;8.598;2022-07-23T01:32:36;26.80;54.60
46139;DHT22;32398;49.112;8.598;2022-07-23T01:35:02;26.80;54.70
46139;DHT22;32398;49.112;8.598;2022-07-23T01:37:29;26.80;54.80
46139;DHT22;32398;49.112;8.598;2022-07-23T01:39:57;26.80;54.80
46139;DHT22;32398;49.112;8.598;2022-07-23T01:42:24;26.80;54.90
46139;DHT22;32398;49.112;8.598;2022-07-23T01:44:51;26.70;55.00
46139;DHT22;32398;49.112;8.598;2022-07-23T01:47:17;26.70;55.20
46139;DHT22;32398;49.112;8.598;2022-07-23T01:49:44;26.70;55.40
46139;DHT22;32398;49.112;8.598;2022-07-23T01:52:10;26.70;55.50
46139;DHT22;32398;49.112;8.598;2022-07-23T01:54:37;26.60;55.50
46139;DHT22;32398;49.112;8.598;2022-07-23T01:57:06;26.60;55.50
46139;DHT22;32398;49.112;8.598;2022-07-23T01:59:33;26.60;55.60
46139;DHT22;32398;49.112;8.598;2022-07-23T02:01:59;26.50;55.60
46139;DHT22;32398;49.112;8.598;2022-07-23T02:04:26;26.60;55.70
46139;DHT22;32398;49.112;8.598;2022-07-23T02:06:54;26.50;55.80
46139;DHT22;32398;49.112;8.598;2022-07-23T02:09:21;26.50;55.90
46139;DHT22;32398;49.112;8.598;2022-07-23T02:11:48;26.40;55.80
46139;DHT22;32398;49.112;8.598;2022-07-23T02:14:16;26.40;55.90
46139;DHT22;32398;49.112;8.598;2022-07-23T02:16:43;26.40;56.00
46139;DHT22;32398;49.112;8.598;2022-07-23T02:19:10;26.40;56.00
46139;DHT22;32398;49.112;8.598;2022-07-23T02:21:36;26.40;56.20
46139;DHT22;32398;49.112;8.598;2022-07-23T02:24:03;26.30;56.20
46139;DHT22;32398;49.112;8.598;2022-07-23T02:26:30;26.30;56.10
46139;DHT22;32398;49.112;8.598;2022-07-23T02:29:00;26.30;56.20
46139;DHT22;32398;49.112;8.598;2022-07-23T02:31:28;26.20;56.20
46139;DHT22;32398;49.112;8.598;2022-07-23T02:33:54;26.20;56.30
46139;DHT22;32398;49.112;8.598;2022-07-23T02:36:21;26.10;56.20
46139;DHT22;32398;49.112;8.598;2022-07-23T02:38:47;26.10;56.40
46139;DHT22;32398;49.112;8.598;2022-07-23T02:41:14;26.10;56.40
46139;DHT22;32398;49.112;8.598;2022-07-23T02:43:41;26.10;56.70
46139;DHT22;32398;49.112;8.598;2022-07-23T02:46:07;26.10;56.60
46139;DHT22;32398;49.112;8.598;2022-07-23T02:48:35;26.00;56.50
46139;DHT22;32398;49.112;8.598;2022-07-23T02:51:02;26.00;56.60
46139;DHT22;32398;49.112;8.598;2022-07-23T02:53:29;26.00;56.60
46139;DHT22;32398;49.112;8.598;2022-07-23T02:55:55;26.00;56.70
46139;DHT22;32398;49.112;8.598;2022-07-23T02:58:22;26.00;56.80
46139;DHT22;32398;49.112;8.598;2022-07-23T03:00:50;25.90;56.90
46139;DHT22;32398;49.112;8.598;2022-07-23T03:03:17;25.90;57.00
46139;DHT22;32398;49.112;8.598;2022-07-23T03:05:44;25.90;57.00
46139;DHT22;32398;49.112;8.598;2022-07-23T03:08:11;25.80;57.00
46139;DHT22;32398;49.112;8.598;2022-07-23T03:10:38;25.80;57.10
46139;DHT22;32398;49.112;8.598;2022-07-23T03:13:05;25.80;57.20
46139;DHT22;32398;49.112;8.598;2022-07-23T03:15:32;25.80;57.10
46139;DHT22;32398;49.112;8.598;2022-07-23T03:17:58;25.70;57.10
46139;DHT22;32398;49.112;8.598;2022-07-23T03:20:25;25.70;57.10
46139;DHT22;32398;49.112;8.598;2022-07-23T03:22:52;25.70;57.20
46139;DHT22;32398;49.112;8.598;2022-07-23T03:25:19;25.70;57.20
46139;DHT22;32398;49.112;8.598;2022-07-23T03:27:46;25.60;57.30
46139;DHT22;32398;49.112;8.598;2022-07-23T03:30:12;25.60;57.30
46139;DHT22;32398;49.112;8.598;2022-07-23T03:32:39;25.60;57.40
46139;DHT22;32398;49.112;8.598;2022-07-23T03:35:06;25.60;57.40
46139;DHT22;32398;49.112;8.598;2022-07-23T03:37:32;25.50;57.40
46139;DHT22;32398;49.112;8.598;2022-07-23T03:40:00;25.50;57.40
46139;DHT22;32398;49.112;8.598;2022-07-23T03:42:27;25.50;57.40
46139;DHT22;32398;49.112;8.598;2022-07-23T03:44:53;25.50;57.50
46139;DHT22;32398;49.112;8.598;2022-07-23T03:47:20;25.40;57.50
46139;DHT22;32398;49.112;8.598;2022-07-23T03:49:47;25.40;57.50
46139;DHT22;32398;49.112;8.598;2022-07-23T03:52:13;25.40;57.40
46139;DHT22;32398;49.112;8.598;2022-07-23T03:54:40;25.40;57.40
46139;DHT22;32398;49.112;8.598;2022-07-23T03:57:08;25.30;57.50
46139;DHT22;32398;49.112;8.598;2022-07-23T03:59:35;25.30;57.60
46139;DHT22;32398;49.112;8.598;2022-07-23T04:02:01;25.30;57.60
46139;DHT22;32398;49.112;8.598;2022-07-23T04:04:28;25.30;57.70
46139;DHT22;32398;49.112;8.598;2022-07-23T04:06:54;25.30;57.80
46139;DHT22;32398;49.112;8.598;2022-07-23T04:09:21;25.30;58.00
46139;DHT22;32398;49.112;8.598;2022-07-23T04:11:47;25.20;57.90
46139;DHT22;32398;49.112;8.598;2022-07-23T04:14:16;25.20;57.80
46139;DHT22;32398;49.112;8.598;2022-07-23T04:16:42;25.20;58.00
46139;DHT22;32398;49.112;8.598;2022-07-23T04:19:09;25.20;58.00
46139;DHT22;32398;49.112;8.598;2022-07-23T04:21:35;25.10;58.10
46139;DHT22;32398;49.112;8.598;2022-07-23T04:24:02;25.10;58.10
46139;DHT22;32398;49.112;8.598;2022-07-23T04:26:28;25.10;58.10
46139;DHT22;32398;49.112;8.598;2022-07-23T04:28:55;25.10;58.10
46139;DHT22;32398;49.112;8.598;2022-07-23T04:31:23;25.10;58.20
46139;DHT22;32398;49.112;8.598;2022-07-23T04:33:49;25.10;58.30
46139;DHT22;32398;49.112;8.598;2022-07-23T04:36:16;25.00;58.20
46139;DHT22;32398;49.112;8.598;2022-07-23T04:38:43;25.00;58.30
46139;DHT22;32398;49.112;8.598;2022-07-23T04:41:09;25.00;58.30
46139;DHT22;32398;49.112;8.598;2022-07-23T04:43:36;25.00;58.40
46139;DHT22;32398;49.112;8.598;2022-07-23T04:46:02;24.90;58.50
46139;DHT22;32398;49.112;8.598;2022-07-23T04:48:30;24.90;58.80
46139;DHT22;32398;49.112;8.598;2022-07-23T04:50:57;24.90;59.00
46139;DHT22;32398;49.112;8.598;2022-07-23T04:53:23;24.90;59.20
46139;DHT22;32398;49.112;8.598;2022-07-23T04:55:50;24.90;59.50
46139;DHT22;32398;49.112;8.598;2022-07-23T04:58:16;24.90;59.60
46139;DHT22;32398;49.112;8.598;2022-07-23T05:00:43;24.90;59.80
46139;DHT22;32398;49.112;8.598;2022-07-23T05:03:09;24.80;59.80
46139;DHT22;32398;49.112;8.598;2022-07-23T05:05:38;24.70;60.10
46139;DHT22;32398;49.112;8.598;2022-07-23T05:08:04;24.80;60.40
46139;DHT22;32398;49.112;8.598;2022-07-23T05:10:31;24.80;60.50
46139;DHT22;32398;49.112;8.598;2022-07-23T05:12:57;24.70;60.60
46139;DHT22;32398;49.112;8.598;2022-07-23T05:15:24;24.70;60.70
46139;DHT22;32398;49.112;8.598;2022-07-23T05:17:51;24.70;60.80
46139;DHT22;32398;49.112;8.598;2022-07-23T05:20:17;24.70;61.10
46139;DHT22;32398;49.112;8.598;2022-07-23T05:22:45;24.70;61.40
46139;DHT22;32398;49.112;8.598;2022-07-23T05:25:12;24.70;61.50
46139;DHT22;32398;49.112;8.598;2022-07-23T05:27:38;24.70;61.60
46139;DHT22;32398;49.112;8.598;2022-07-23T05:30:05;24.70;61.60
46139;DHT22;32398;49.112;8.598;2022-07-23T05:32:32;24.60;61.80
46139;DHT22;32398;49.112;8.598;2022-07-23T05:34:59;24.60;62.10
46139;DHT22;32398;49.112;8.598;2022-07-23T05:37:25;24.60;62.20
46139;DHT22;32398;49.112;8.598;2022-07-23T05:39:53;24.60;62.70
46139;DHT22;32398;49.112;8.598;2022-07-23T05:42:19;24.60;63.10
46139;DHT22;32398;49.112;8.598;2022-07-23T05:44:46;24.50;63.10
46139;DHT22;32398;49.112;8.598;2022-07-23T05:47:13;24.50;63.30
46139;DHT22;32398;49.112;8.598;2022-07-23T05:49:39;24.50;63.40
46139;DHT22;32398;49.112;8.598;2022-07-23T05:52:06;24.50;63.60
46139;DHT22;32398;49.112;8.598;2022-07-23T05:54:33;24.50;63.80
46139;DHT22;32398;49.112;8.598;2022-07-23T05:57:01;24.50;64.20
46139;DHT22;32398;49.112;8.598;2022-07-23T05:59:28;24.50;64.40
46139;DHT22;32398;49.112;8.598;2022-07-23T06:01:55;24.40;64.40
46139;DHT22;32398;49.112;8.598;2022-07-23T06:04:21;24.40;64.40
46139;DHT22;32398;49.112;8.598;2022-07-23T06:06:48;24.40;64.60
46139;DHT22;32398;49.112;8.598;2022-07-23T06:09:14;24.40;65.30
46139;DHT22;32398;49.112;8.598;2022-07-23T06:11:41;24.40;64.70
46139;DHT22;32398;49.112;8.598;2022-07-23T06:14:09;24.40;64.90
46139;DHT22;32398;49.112;8.598;2022-07-23T06:16:35;24.40;65.00
46139;DHT22;32398;49.112;8.598;2022-07-23T06:19:02;24.40;65.20
46139;DHT22;32398;49.112;8.598;2022-07-23T06:21:28;24.30;65.20
46139;DHT22;32398;49.112;8.598;2022-07-23T06:23:55;24.30;65.40
46139;DHT22;32398;49.112;8.598;2022-07-23T06:26:22;24.30;65.60
46139;DHT22;32398;49.112;8.598;2022-07-23T06:28:48;24.30;65.70
46139;DHT22;32398;49.112;8.598;2022-07-23T06:31:16;24.30;65.80
46139;DHT22;32398;49.112;8.598;2022-07-23T06:33:42;24.30;67.30
46139;DHT22;32398;49.112;8.598;2022-07-23T06:36:09;24.20;70.40
46139;DHT22;32398;49.112;8.598;2022-07-23T06:38:36;24.10;72.50
46139;DHT22;32398;49.112;8.598;2022-07-23T06:41:02;23.70;73.50
46139;DHT22;32398;49.112;8.598;2022-07-23T06:43:29;23.70;74.40
46139;DHT22;32398;49.112;8.598;2022-07-23T06:45:56;23.50;74.90
46139;DHT22;32398;49.112;8.598;2022-07-23T06:48:24;23.40;75.40
46139;DHT22;32398;49.112;8.598;2022-07-23T06:50:50;23.30;75.50
46139;DHT22;32398;49.112;8.598;2022-07-23T06:53:18;23.30;76.40
46139;DHT22;32398;49.112;8.598;2022-07-23T06:55:44;23.30;75.50
46139;DHT22;32398;49.112;8.598;2022-07-23T06:58:11;23.30;76.40
46139;DHT22;32398;49.112;8.598;2022-07-23T07:00:39;23.30;76.50
46139;DHT22;32398;49.112;8.598;2022-07-23T07:03:05;23.30;77.00
46139;DHT22;32398;49.112;8.598;2022-07-23T07:05:33;23.40;76.80
46139;DHT22;32398;49.112;8.598;2022-07-23T07:08:00;23.40;76.50
46139;DHT22;32398;49.112;8.598;2022-07-23T07:10:26;23.50;75.00
46139;DHT22;32398;49.112;8.598;2022-07-23T07:12:53;23.50;75.60
46139;DHT22;32398;49.112;8.598;2022-07-23T07:15:19;23.60;75.00
46139;DHT22;32398;49.112;8.598;2022-07-23T07:17:46;23.60;74.80
46139;DHT22;32398;49.112;8.598;2022-07-23T07:20:13;23.80;74.60
46139;DHT22;32398;49.112;8.598;2022-07-23T07:22:41;23.70;73.50
46139;DHT22;32398;49.112;8.598;2022-07-23T07:25:08;23.70;73.70
46139;DHT22;32398;49.112;8.598;2022-07-23T07:27:34;23.80;73.50
46139;DHT22;32398;49.112;8.598;2022-07-23T07:30:01;23.80;73.00
46139;DHT22;32398;49.112;8.598;2022-07-23T07:32:27;23.80;71.80
46139;DHT22;32398;49.112;8.598;2022-07-23T07:34:54;23.90;72.30
46139;DHT22;32398;49.112;8.598;2022-07-23T07:37:21;23.90;72.20
46139;DHT22;32398;49.112;8.598;2022-07-23T07:39:49;23.90;71.70
46139;DHT22;32398;49.112;8.598;2022-07-23T07:42:15;23.90;70.90
46139;DHT22;32398;49.112;8.598;2022-07-23T07:44:42;24.00;71.40
46139;DHT22;32398;49.112;8.598;2022-07-23T07:47:09;24.30;72.60
46139;DHT22;32398;49.112;8.598;2022-07-23T07:49:35;24.00;70.30
46139;DHT22;32398;49.112;8.598;2022-07-23T07:52:02;24.00;70.50
46139;DHT22;32398;49.112;8.598;2022-07-23T07:54:28;24.00;70.40
46139;DHT22;32398;49.112;8.598;2022-07-23T07:56:56;23.10;69.00
46139;DHT22;32398;49.112;8.598;2022-07-23T07:59:23;24.10;70.50
46139;DHT22;32398;49.112;8.598;2022-07-23T08:01:50;24.10;81.70
46139;DHT22;32398;49.112;8.598;2022-07-23T08:04:17;24.70;74.70
46139;DHT22;32398;49.112;8.598;2022-07-23T08:06:44;24.10;69.50
46139;DHT22;32398;49.112;8.598;2022-07-23T08:09:10;24.30;74.10
46139;DHT22;32398;49.112;8.598;2022-07-23T08:11:37;24.10;68.50
46139;DHT22;32398;49.112;8.598;2022-07-23T08:14:05;24.20;69.10
46139;DHT22;32398;49.112;8.598;2022-07-23T08:16:31;24.20;68.80
46139;DHT22;32398;49.112;8.598;2022-07-23T08:18:58;24.30;65.60
46139;DHT22;32398;49.112;8.598;2022-07-23T08:21:24;24.50;62.90
46139;DHT22;32398;49.112;8.598;2022-07-23T08:23:51;24.50;63.30
46139;DHT22;32398;49.112;8.598;2022-07-23T08:26:17;24.70;62.70
46139;DHT22;32398;49.112;8.598;2022-07-23T08:28:44;24.80;62.90
46139;DHT22;32398;49.112;8.598;2022-07-23T08:31:12;24.90;62.00
46139;DHT22;32398;49.112;8.598;2022-07-23T08:33:40;25.00;61.60
46139;DHT22;32398;49.112;8.598;2022-07-23T08:36:07;25.10;61.50
46139;DHT22;32398;49.112;8.598;2022-07-23T08:38:34;25.20;62.10
46139;DHT22;32398;49.112;8.598;2022-07-23T08:41:01;25.20;59.70
46139;DHT22;32398;49.112;8.598;2022-07-23T08:43:30;25.20;60.30
46139;DHT22;32398;49.112;8.598;2022-07-23T08:45:58;25.20;61.80
46139;DHT22;32398;49.112;8.598;2022-07-23T08:48:26;25.30;61.40
46139;DHT22;32398;49.112;8.598;2022-07-23T08:50:54;25.60;61.60
46139;DHT22;32398;49.112;8.598;2022-07-23T08:53:21;25.70;61.80
46139;DHT22;32398;49.112;8.598;2022-07-23T08:55:48;25.90;61.00
46139;DHT22;32398;49.112;8.598;2022-07-23T08:58:15;26.10;60.30
46139;DHT22;32398;49.112;8.598;2022-07-23T09:00:42;26.40;57.80
46139;DHT22;32398;49.112;8.598;2022-07-23T09:03:11;26.30;58.30
46139;DHT22;32398;49.112;8.598;2022-07-23T09:05:42;26.20;58.80
46139;DHT22;32398;49.112;8.598;2022-07-23T09:08:10;25.90;59.50
46139;DHT22;32398;49.112;8.598;2022-07-23T09:10:44;25.70;60.10
46139;DHT22;32398;49.112;8.598;2022-07-23T09:13:27;25.50;60.60
46139;DHT22;32398;49.112;8.598;2022-07-23T09:15:55;25.50;61.10
46139;DHT22;32398;49.112;8.598;2022-07-23T09:18:28;25.40;61.50
46139;DHT22;32398;49.112;8.598;2022-07-23T09:21:06;25.70;58.80
46139;DHT22;32398;49.112;8.598;2022-07-23T09:23:36;25.80;59.40
46139;DHT22;32398;49.112;8.598;2022-07-23T09:26:06;26.20;58.30
46139;DHT22;32398;49.112;8.598;2022-07-23T09:28:47;26.40;57.80
46139;DHT22;32398;49.112;8.598;2022-07-23T09:31:14;26.70;57.30
46139;DHT22;32398;49.112;8.598;2022-07-23T09:33:40;26.90;56.40
46139;DHT22;32398;49.112;8.598;2022-07-23T09:36:09;27.00;55.80
46139;DHT22;32398;49.112;8.598;2022-07-23T09:38:36;26.90;56.10
46139;DHT22;32398;49.112;8.598;2022-07-23T09:41:13;26.70;56.80
46139;DHT22;32398;49.112;8.598;2022-07-23T09:43:40;26.50;57.60
46139;DHT22;32398;49.112;8.598;2022-07-23T09:46:19;26.30;58.00
46139;DHT22;32398;49.112;8.598;2022-07-23T09:48:46;26.20;58.60
46139;DHT22;32398;49.112;8.598;2022-07-23T09:51:14;26.00;58.80
46139;DHT22;32398;49.112;8.598;2022-07-23T09:53:42;25.90;59.40
46139;DHT22;32398;49.112;8.598;2022-07-23T09:56:09;25.90;59.50
46139;DHT22;32398;49.112;8.598;2022-07-23T09:58:37;25.90;59.50
46139;DHT22;32398;49.112;8.598;2022-07-23T10:01:10;25.90;59.80
46139;DHT22;32398;49.112;8.598;2022-07-23T10:03:37;25.90;59.80
46139;DHT22;32398;49.112;8.598;2022-07-23T10:06:03;25.90;59.70
46139;DHT22;32398;49.112;8.598;2022-07-23T10:08:31;25.90;59.50
46139;DHT22;32398;49.112;8.598;2022-07-23T10:10:58;25.90;59.50
46139;DHT22;32398;49.112;8.598;2022-07-23T10:13:27;26.00;59.90
46139;DHT22;32398;49.112;8.598;2022-07-23T10:16:13;26.00;60.20
46139;DHT22;32398;49.112;8.598;2022-07-23T10:18:40;26.10;60.40
46139;DHT22;32398;49.112;8.598;2022-07-23T10:21:07;26.10;59.70
46139;DHT22;32398;49.112;8.598;2022-07-23T10:23:37;26.10;60.20
46139;DHT22;32398;49.112;8.598;2022-07-23T10:26:11;26.20;59.70
46139;DHT22;32398;49.112;8.598;2022-07-23T10:28:53;26.50;58.60
46139;DHT22;32398;49.112;8.598;2022-07-23T10:31:26;26.80;57.50
46139;DHT22;32398;49.112;8.598;2022-07-23T10:33:56;26.80;58.00
46139;DHT22;32398;49.112;8.598;2022-07-23T10:36:24;26.80;58.40
46139;DHT22;32398;49.112;8.598;2022-07-23T10:38:57;26.80;58.30
46139;DHT22;32398;49.112;8.598;2022-07-23T10:41:30;26.80;58.60
46139;DHT22;32398;49.112;8.598;2022-07-23T10:44:05;26.80;59.00
46139;DHT22;32398;49.112;8.598;2022-07-23T10:46:32;26.80;58.80
46139;DHT22;32398;49.112;8.598;2022-07-23T10:49:20;26.80;58.40
46139;DHT22;32398;49.112;8.598;2022-07-23T10:54:29;26.80;58.70
46139;DHT22;32398;49.112;8.598;2022-07-23T10:57:06;26.90;58.90
46139;DHT22;32398;49.112;8.598;2022-07-23T11:02:20;27.10;56.70
46139;DHT22;32398;49.112;8.598;2022-07-23T11:04:48;27.40;56.30
46139;DHT22;32398;49.112;8.598;2022-07-23T11:07:15;27.60;56.10
46139;DHT22;32398;49.112;8.598;2022-07-23T11:09:44;27.60;55.80
46139;DHT22;32398;49.112;8.598;2022-07-23T11:15:00;27.60;55.90
46139;DHT22;32398;49.112;8.598;2022-07-23T11:17:28;27.60;55.60
46139;DHT22;32398;49.112;8.598;2022-07-23T11:20:16;27.60;55.60
46139;DHT22;32398;49.112;8.598;2022-07-23T11:22:46;27.50;55.70
46139;DHT22;32398;49.112;8.598;2022-07-23T11:25:28;27.60;56.30
46139;DHT22;32398;49.112;8.598;2022-07-23T11:27:56;27.60;56.50
46139;DHT22;32398;49.112;8.598;2022-07-23T11:30:40;27.60;55.50
46139;DHT22;32398;49.112;8.598;2022-07-23T11:33:17;27.70;55.90
46139;DHT22;32398;49.112;8.598;2022-07-23T11:35:44;28.20;53.20
46139;DHT22;32398;49.112;8.598;2022-07-23T11:38:13;28.80;52.20
46139;DHT22;32398;49.112;8.598;2022-07-23T11:40:41;28.80;52.20
46139;DHT22;32398;49.112;8.598;2022-07-23T11:43:09;28.70;53.10
46139;DHT22;32398;49.112;8.598;2022-07-23T11:45:37;28.60;53.70
46139;DHT22;32398;49.112;8.598;2022-07-23T11:48:04;28.50;53.90
46139;DHT22;32398;49.112;8.598;2022-07-23T11:50:31;28.40;54.70
46139;DHT22;32398;49.112;8.598;2022-07-23T11:52:57;28.40;54.80
46139;DHT22;32398;49.112;8.598;2022-07-23T11:55:24;28.30;55.00
46139;DHT22;32398;49.112;8.598;2022-07-23T11:57:52;28.30;54.70
46139;DHT22;32398;49.112;8.598;2022-07-23T12:00:20;28.30;53.90
46139;DHT22;32398;49.112;8.598;2022-07-23T12:02:48;28.30;54.30
46139;DHT22;32398;49.112;8.598;2022-07-23T12:05:15;28.30;54.60
46139;DHT22;32398;49.112;8.598;2022-07-23T12:07:42;28.30;54.50
46139;DHT22;32398;49.112;8.598;2022-07-23T12:10:11;28.30;53.80
46139;DHT22;32398;49.112;8.598;2022-07-23T12:12:39;28.30;53.60
46139;DHT22;32398;49.112;8.598;2022-07-23T12:15:07;28.40;53.60
46139;DHT22;32398;49.112;8.598;2022-07-23T12:17:35;28.40;53.60
46139;DHT22;32398;49.112;8.598;2022-07-23T12:20:03;28.40;53.70
46139;DHT22;32398;49.112;8.598;2022-07-23T12:22:33;28.50;53.50
46139;DHT22;32398;49.112;8.598;2022-07-23T12:25:01;28.60;52.70
46139;DHT22;32398;49.112;8.598;2022-07-23T12:27:29;28.60;53.10
46139;DHT22;32398;49.112;8.598;2022-07-23T12:29:56;28.60;53.00
46139;DHT22;32398;49.112;8.598;2022-07-23T12:32:24;28.70;52.70
46139;DHT22;32398;49.112;8.598;2022-07-23T12:35:02;28.70;52.90
46139;DHT22;32398;49.112;8.598;2022-07-23T12:37:30;28.80;52.10
46139;DHT22;32398;49.112;8.598;2022-07-23T12:39:57;28.90;52.80
46139;DHT22;32398;49.112;8.598;2022-07-23T12:42:24;28.90;52.50
46139;DHT22;32398;49.112;8.598;2022-07-23T12:45:07;29.00;52.70
46139;DHT22;32398;49.112;8.598;2022-07-23T12:53:19;29.10;52.40
46139;DHT22;32398;49.112;8.598;2022-07-23T12:55:46;29.20;52.70
46139;DHT22;32398;49.112;8.598;2022-07-23T12:58:14;29.20;51.60
46139;DHT22;32398;49.112;8.598;2022-07-23T13:00:54;29.30;52.00
46139;DHT22;32398;49.112;8.598;2022-07-23T13:03:25;29.30;52.20
46139;DHT22;32398;49.112;8.598;2022-07-23T13:05:52;29.40;52.80
46139;DHT22;32398;49.112;8.598;2022-07-23T13:08:20;29.40;52.20
46139;DHT22;32398;49.112;8.598;2022-07-23T13:10:47;29.50;52.10
46139;DHT22;32398;49.112;8.598;2022-07-23T13:13:14;29.50;51.00
46139;DHT22;32398;49.112;8.598;2022-07-23T13:15:40;29.50;51.20
46139;DHT22;32398;49.112;8.598;2022-07-23T13:18:07;29.60;50.70
46139;DHT22;32398;49.112;8.598;2022-07-23T13:20:34;29.60;51.70
46139;DHT22;32398;49.112;8.598;2022-07-23T13:23:01;29.70;52.00
46139;DHT22;32398;49.112;8.598;2022-07-23T13:25:29;29.70;51.50
46139;DHT22;32398;49.112;8.598;2022-07-23T13:27:56;29.80;51.60
46139;DHT22;32398;49.112;8.598;2022-07-23T13:30:22;29.70;51.80
46139;DHT22;32398;49.112;8.598;2022-07-23T13:32:50;29.80;51.40
46139;DHT22;32398;49.112;8.598;2022-07-23T13:35:17;29.80;51.60
46139;DHT22;32398;49.112;8.598;2022-07-23T13:37:44;29.80;51.10
46139;DHT22;32398;49.112;8.598;2022-07-23T13:40:11;29.80;51.20
46139;DHT22;32398;49.112;8.598;2022-07-23T13:42:39;29.80;50.60
46139;DHT22;32398;49.112;8.598;2022-07-23T13:45:06;29.80;51.10
46139;DHT22;32398;49.112;8.598;2022-07-23T13:47:33;29.80;51.30
46139;DHT22;32398;49.112;8.598;2022-07-23T13:49:59;29.80;51.20
46139;DHT22;32398;49.112;8.598;2022-07-23T13:52:26;29.80;50.70
46139;DHT22;32398;49.112;8.598;2022-07-23T13:54:52;29.90;51.30
46139;DHT22;32398;49.112;8.598;2022-07-23T13:57:19;29.90;51.20
46139;DHT22;32398;49.112;8.598;2022-07-23T13:59:47;29.90;51.30
46139;DHT22;32398;49.112;8.598;2022-07-23T14:02:13;29.90;51.00
46139;DHT22;32398;49.112;8.598;2022-07-23T14:04:41;29.90;50.20
46139;DHT22;32398;49.112;8.598;2022-07-23T14:07:08;29.90;50.10
46139;DHT22;32398;49.112;8.598;2022-07-23T14:09:35;29.90;50.20
46139;DHT22;32398;49.112;8.598;2022-07-23T14:12:02;30.00;49.90
46139;DHT22;32398;49.112;8.598;2022-07-23T14:14:28;30.00;50.20
46139;DHT22;32398;49.112;8.598;2022-07-23T14:16:56;30.10;49.60
46139;DHT22;32398;49.112;8.598;2022-07-23T14:19:23;30.10;49.20
46139;DHT22;32398;49.112;8.598;2022-07-23T14:21:49;30.10;48.90
46139;DHT22;32398;49.112;8.598;2022-07-23T14:24:16;30.20;49.30
46139;DHT22;32398;49.112;8.598;2022-07-23T14:26:43;30.20;49.40
46139;DHT22;32398;49.112;8.598;2022-07-23T14:29:09;30.30;49.40
46139;DHT22;32398;49.112;8.598;2022-07-23T14:31:36;30.40;49.50
46139;DHT22;32398;49.112;8.598;2022-07-23T14:34:04;30.40;49.50
46139;DHT22;32398;49.112;8.598;2022-07-23T14:36:30;30.50;49.30
46139;DHT22;32398;49.112;8.598;2022-07-23T14:38:57;30.50;48.20
46139;DHT22;32398;49.112;8.598;2022-07-23T14:41:23;30.60;48.30
46139;DHT22;32398;49.112;8.598;2022-07-23T14:43:50;30.60;48.20
46139;DHT22;32398;49.112;8.598;2022-07-23T14:46:16;30.70;48.20
46139;DHT22;32398;49.112;8.598;2022-07-23T14:48:43;30.80;48.20
46139;DHT22;32398;49.112;8.598;2022-07-23T14:51:11;30.80;48.40
46139;DHT22;32398;49.112;8.598;2022-07-23T14:53:38;30.90;48.10
46139;DHT22;32398;49.112;8.598;2022-07-23T14:56:04;30.90;48.20
46139;DHT22;32398;49.112;8.598;2022-07-23T14:58:31;31.00;48.30
46139;DHT22;32398;49.112;8.598;2022-07-23T15:00:58;31.00;48.60
46139;DHT22;32398;49.112;8.598;2022-07-23T15:03:24;31.00;48.20
46139;DHT22;32398;49.112;8.598;2022-07-23T15:05:51;31.10;48.00
46139;DHT22;32398;49.112;8.598;2022-07-23T15:08:19;31.10;47.50
46139;DHT22;32398;49.112;8.598;2022-07-23T15:10:45;31.10;47.80
46139;DHT22;32398;49.112;8.598;2022-07-23T15:13:12;31.20;47.90
46139;DHT22;32398;49.112;8.598;2022-07-23T15:15:39;31.30;48.20
46139;DHT22;32398;49.112;8.598;2022-07-23T15:18:05;31.30;47.80
46139;DHT22;32398;49.112;8.598;2022-07-23T15:20:32;31.40;47.30
46139;DHT22;32398;49.112;8.598;2022-07-23T15:22:58;31.40;47.70
46139;DHT22;32398;49.112;8.598;2022-07-23T15:25:26;31.40;47.20
46139;DHT22;32398;49.112;8.598;2022-07-23T15:27:53;31.50;47.00
46139;DHT22;32398;49.112;8.598;2022-07-23T15:30:19;31.50;47.10
46139;DHT22;32398;49.112;8.598;2022-07-23T15:32:46;31.50;46.60
46139;DHT22;32398;49.112;8.598;2022-07-23T15:35:12;31.50;47.10
46139;DHT22;32398;49.112;8.598;2022-07-23T15:37:39;31.50;47.20
46139;DHT22;32398;49.112;8.598;2022-07-23T15:40:07;31.60;47.10
46139;DHT22;32398;49.112;8.598;2022-07-23T15:42:35;31.60;46.90
46139;DHT22;32398;49.112;8.598;2022-07-23T15:45:02;31.60;47.10
46139;DHT22;32398;49.112;8.598;2022-07-23T15:47:29;31.60;47.30